Airfield :
LOGIN :

Register | Disclaimer

   EN    FR    IT 

 










Legend :    VFR   Marginal VFR   IFR   Intensive IFR   Very Intensive IFR
Visi :
Ceiling :
>= 8 km
>= 3000ft
5 to 8 km
1000 to 3000 ft
1500m to 5 km
500 to 1000 ft
800 to 1500m
200 to 500 ft
< 800m
< 200 ft
Symbols :   Thunderstorms  Fog  Heavy snow  Heavy precipitations  Wind > 20 kt
SIGMETs :     Misc.  Thunderstorms  Icing  Turbulence  Mountain Waves  Volcanic Ashes






- Airport Elevation : 446 ft
- IATA code : VNE


LFRV - Vannes-Meucon

CURRENT METAR :
  • 201400Z AUTO 03009KT 360V060 9999 SCT048 BKN058 BKN070 20/11 Q1009

EXPIRED METARs :
  • 201330Z AUTO 04010KT 360V070 CAVOK 20/10 Q1009
  • 201300Z AUTO 01011KT 340V040 9999 SCT048 SCT056 21/11 Q1009
  • 201230Z AUTO 03010KT 360V060 9999 FEW048 19/11 Q1009
  • 201200Z AUTO 02010KT 340V070 9999 ///TCU 20/12 Q1010
  • 201130Z AUTO 03010KT 9999 FEW028 20/11 Q1010
  • 201100Z AUTO 02009KT 350V050 9999 FEW023 19/13 Q1010
  • 201030Z AUTO 02009KT 350V060 9999 SCT019 SCT240 19/16 Q1010
  • 201000Z AUTO 03009KT 350V060 9999 FEW013 18/14 Q1010
  • 200930Z AUTO 02010KT 340V040 9000 FEW012 17/14 Q1010

TAF N/A



MET'MAP, your aeronautical weather chart ! - Copyright ORBIFLY December 2007 - Disclaimer

ORBIFLY MET'MAP TEAM :

Programming & Development : Alexandra Zaïnal
Original concept : Baudouin d'Aumeries
Technical & hardware support : Manuel Goepfert
Assistance : Marc-Olivier Méhu




SOURCES & CREDITS :

   NOAA